sensor_id;sensor_type;location;lat;lon;timestamp;P1;durP1;ratioP1;P2;durP2;ratioP2
40573;SDS011;26283;49.020;8.644;2022-08-01T00:00:22;2.33;;;2.22;;
40573;SDS011;26283;49.020;8.644;2022-08-01T00:02:48;1.62;;;1.58;;
40573;SDS011;26283;49.020;8.644;2022-08-01T00:05:13;2.10;;;1.90;;
40573;SDS011;26283;49.020;8.644;2022-08-01T00:07:39;2.30;;;2.20;;
40573;SDS011;26283;49.020;8.644;2022-08-01T00:10:06;2.15;;;1.92;;
40573;SDS011;26283;49.020;8.644;2022-08-01T00:12:33;2.60;;;2.40;;
40573;SDS011;26283;49.020;8.644;2022-08-01T00:14:59;2.15;;;2.03;;
40573;SDS011;26283;49.020;8.644;2022-08-01T00:17:25;2.00;;;1.90;;
40573;SDS011;26283;49.020;8.644;2022-08-01T00:19:50;2.17;;;2.00;;
40573;SDS011;26283;49.020;8.644;2022-08-01T00:22:16;2.92;;;2.03;;
40573;SDS011;26283;49.020;8.644;2022-08-01T00:24:42;2.25;;;1.98;;
40573;SDS011;26283;49.020;8.644;2022-08-01T00:27:07;2.33;;;1.98;;
40573;SDS011;26283;49.020;8.644;2022-08-01T00:29:33;2.30;;;2.10;;
40573;SDS011;26283;49.020;8.644;2022-08-01T00:31:58;2.33;;;2.05;;
40573;SDS011;26283;49.020;8.644;2022-08-01T00:34:23;2.22;;;2.10;;
40573;SDS011;26283;49.020;8.644;2022-08-01T00:36:49;2.40;;;2.20;;
40573;SDS011;26283;49.020;8.644;2022-08-01T00:39:14;3.40;;;2.20;;
40573;SDS011;26283;49.020;8.644;2022-08-01T00:41:39;3.05;;;2.10;;
40573;SDS011;26283;49.020;8.644;2022-08-01T00:44:05;2.33;;;2.17;;
40573;SDS011;26283;49.020;8.644;2022-08-01T00:46:31;2.50;;;2.25;;
40573;SDS011;26283;49.020;8.644;2022-08-01T00:48:57;2.65;;;2.25;;
40573;SDS011;26283;49.020;8.644;2022-08-01T00:51:23;2.95;;;2.30;;
40573;SDS011;26283;49.020;8.644;2022-08-01T00:53:50;2.80;;;2.60;;
40573;SDS011;26283;49.020;8.644;2022-08-01T00:56:16;4.00;;;2.20;;
40573;SDS011;26283;49.020;8.644;2022-08-01T00:58:42;3.03;;;2.83;;
40573;SDS011;26283;49.020;8.644;2022-08-01T01:01:08;4.47;;;2.75;;
40573;SDS011;26283;49.020;8.644;2022-08-01T01:03:34;4.32;;;2.50;;
40573;SDS011;26283;49.020;8.644;2022-08-01T01:06:14;2.25;;;2.10;;
40573;SDS011;26283;49.020;8.644;2022-08-01T01:15:14;3.00;;;2.17;;
40573;SDS011;26283;49.020;8.644;2022-08-01T01:17:50;2.35;;;2.00;;
40573;SDS011;26283;49.020;8.644;2022-08-01T01:20:20;2.60;;;2.20;;
40573;SDS011;26283;49.020;8.644;2022-08-01T01:28:05;2.40;;;2.08;;
40573;SDS011;26283;49.020;8.644;2022-08-01T01:30:37;2.53;;;2.25;;
40573;SDS011;26283;49.020;8.644;2022-08-01T01:33:06;2.00;;;1.90;;
40573;SDS011;26283;49.020;8.644;2022-08-01T01:35:35;2.20;;;2.00;;
40573;SDS011;26283;49.020;8.644;2022-08-01T01:38:19;1.77;;;1.65;;
40573;SDS011;26283;49.020;8.644;2022-08-01T01:40:50;2.50;;;1.95;;
40573;SDS011;26283;49.020;8.644;2022-08-01T01:43:17;2.12;;;1.98;;
40573;SDS011;26283;49.020;8.644;2022-08-01T01:45:44;2.45;;;2.03;;
40573;SDS011;26283;49.020;8.644;2022-08-01T01:48:16;2.45;;;2.25;;
40573;SDS011;26283;49.020;8.644;2022-08-01T01:50:45;2.28;;;2.17;;
40573;SDS011;26283;49.020;8.644;2022-08-01T01:53:15;2.60;;;2.40;;
40573;SDS011;26283;49.020;8.644;2022-08-01T01:55:45;2.97;;;2.40;;
40573;SDS011;26283;49.020;8.644;2022-08-01T01:58:14;2.53;;;2.42;;
40573;SDS011;26283;49.020;8.644;2022-08-01T02:00:42;2.87;;;2.60;;
40573;SDS011;26283;49.020;8.644;2022-08-01T02:03:10;2.70;;;2.50;;
40573;SDS011;26283;49.020;8.644;2022-08-01T02:05:37;2.22;;;2.12;;
40573;SDS011;26283;49.020;8.644;2022-08-01T02:08:04;2.60;;;2.00;;
40573;SDS011;26283;49.020;8.644;2022-08-01T02:10:31;2.92;;;2.70;;
40573;SDS011;26283;49.020;8.644;2022-08-01T02:12:59;2.37;;;2.20;;
40573;SDS011;26283;49.020;8.644;2022-08-01T02:15:28;3.60;;;2.37;;
40573;SDS011;26283;49.020;8.644;2022-08-01T02:17:55;4.05;;;2.30;;
40573;SDS011;26283;49.020;8.644;2022-08-01T02:20:21;3.97;;;2.60;;
40573;SDS011;26283;49.020;8.644;2022-08-01T02:22:55;2.70;;;2.50;;
40573;SDS011;26283;49.020;8.644;2022-08-01T02:25:28;2.58;;;2.42;;
40573;SDS011;26283;49.020;8.644;2022-08-01T02:27:59;2.53;;;2.40;;
40573;SDS011;26283;49.020;8.644;2022-08-01T02:30:53;2.62;;;2.50;;
40573;SDS011;26283;49.020;8.644;2022-08-01T02:33:24;2.53;;;2.42;;
40573;SDS011;26283;49.020;8.644;2022-08-01T02:35:58;2.67;;;2.10;;
40573;SDS011;26283;49.020;8.644;2022-08-01T02:38:28;2.65;;;2.45;;
40573;SDS011;26283;49.020;8.644;2022-08-01T02:40:57;2.70;;;2.27;;
40573;SDS011;26283;49.020;8.644;2022-08-01T02:43:30;3.33;;;2.67;;
40573;SDS011;26283;49.020;8.644;2022-08-01T02:45:59;2.30;;;2.20;;
40573;SDS011;26283;49.020;8.644;2022-08-01T02:48:27;2.30;;;2.20;;
40573;SDS011;26283;49.020;8.644;2022-08-01T02:50:57;2.53;;;2.37;;
40573;SDS011;26283;49.020;8.644;2022-08-01T02:53:25;2.45;;;2.12;;
40573;SDS011;26283;49.020;8.644;2022-08-01T02:55:54;2.53;;;2.40;;
40573;SDS011;26283;49.020;8.644;2022-08-01T02:58:20;2.57;;;2.37;;
40573;SDS011;26283;49.020;8.644;2022-08-01T03:00:48;2.60;;;2.50;;
40573;SDS011;26283;49.020;8.644;2022-08-01T03:03:14;2.97;;;2.77;;
40573;SDS011;26283;49.020;8.644;2022-08-01T03:05:41;2.57;;;2.37;;
40573;SDS011;26283;49.020;8.644;2022-08-01T03:08:09;2.80;;;2.60;;
40573;SDS011;26283;49.020;8.644;2022-08-01T03:10:36;2.60;;;2.50;;
40573;SDS011;26283;49.020;8.644;2022-08-01T03:13:05;2.40;;;2.30;;
40573;SDS011;26283;49.020;8.644;2022-08-01T03:15:33;2.70;;;2.50;;
40573;SDS011;26283;49.020;8.644;2022-08-01T03:18:02;2.90;;;2.70;;
40573;SDS011;26283;49.020;8.644;2022-08-01T03:20:29;2.47;;;2.27;;
40573;SDS011;26283;49.020;8.644;2022-08-01T03:22:57;3.77;;;2.60;;
40573;SDS011;26283;49.020;8.644;2022-08-01T03:25:24;2.53;;;2.28;;
40573;SDS011;26283;49.020;8.644;2022-08-01T03:27:54;2.93;;;2.43;;
40573;SDS011;26283;49.020;8.644;2022-08-01T03:30:25;2.40;;;2.20;;
40573;SDS011;26283;49.020;8.644;2022-08-01T03:32:52;2.30;;;2.20;;
40573;SDS011;26283;49.020;8.644;2022-08-01T03:35:18;2.60;;;2.40;;
40573;SDS011;26283;49.020;8.644;2022-08-01T03:37:45;2.63;;;2.47;;
40573;SDS011;26283;49.020;8.644;2022-08-01T03:40:18;2.70;;;2.50;;
40573;SDS011;26283;49.020;8.644;2022-08-01T03:42:50;2.70;;;2.30;;
40573;SDS011;26283;49.020;8.644;2022-08-01T03:45:27;2.20;;;2.10;;
40573;SDS011;26283;49.020;8.644;2022-08-01T03:48:00;2.80;;;2.60;;
40573;SDS011;26283;49.020;8.644;2022-08-01T03:50:27;2.40;;;2.20;;
40573;SDS011;26283;49.020;8.644;2022-08-01T03:52:53;4.10;;;2.80;;
40573;SDS011;26283;49.020;8.644;2022-08-01T03:55:22;2.50;;;2.40;;
40573;SDS011;26283;49.020;8.644;2022-08-01T03:57:49;2.50;;;2.30;;
40573;SDS011;26283;49.020;8.644;2022-08-01T04:00:15;2.60;;;2.40;;
40573;SDS011;26283;49.020;8.644;2022-08-01T04:02:43;2.57;;;2.40;;
40573;SDS011;26283;49.020;8.644;2022-08-01T04:05:12;2.33;;;2.20;;
40573;SDS011;26283;49.020;8.644;2022-08-01T04:07:39;2.20;;;2.10;;
40573;SDS011;26283;49.020;8.644;2022-08-01T04:10:05;2.47;;;2.27;;
40573;SDS011;26283;49.020;8.644;2022-08-01T04:12:31;2.67;;;2.23;;
40573;SDS011;26283;49.020;8.644;2022-08-01T04:14:58;2.77;;;2.57;;
40573;SDS011;26283;49.020;8.644;2022-08-01T04:17:24;3.33;;;2.73;;
40573;SDS011;26283;49.020;8.644;2022-08-01T04:19:49;3.73;;;2.70;;
40573;SDS011;26283;49.020;8.644;2022-08-01T04:22:15;2.67;;;2.47;;
40573;SDS011;26283;49.020;8.644;2022-08-01T04:24:42;2.70;;;2.50;;
40573;SDS011;26283;49.020;8.644;2022-08-01T04:27:13;2.83;;;2.70;;
40573;SDS011;26283;49.020;8.644;2022-08-01T04:29:44;2.63;;;2.50;;
40573;SDS011;26283;49.020;8.644;2022-08-01T04:32:11;2.80;;;2.60;;
40573;SDS011;26283;49.020;8.644;2022-08-01T04:34:39;2.80;;;2.60;;
40573;SDS011;26283;49.020;8.644;2022-08-01T04:37:09;2.90;;;2.80;;
40573;SDS011;26283;49.020;8.644;2022-08-01T04:39:36;2.50;;;2.40;;
40573;SDS011;26283;49.020;8.644;2022-08-01T04:42:04;2.67;;;2.47;;
40573;SDS011;26283;49.020;8.644;2022-08-01T04:44:31;3.17;;;2.50;;
40573;SDS011;26283;49.020;8.644;2022-08-01T04:47:00;2.90;;;2.80;;
40573;SDS011;26283;49.020;8.644;2022-08-01T04:49:28;3.17;;;2.97;;
40573;SDS011;26283;49.020;8.644;2022-08-01T04:51:56;4.20;;;2.73;;
40573;SDS011;26283;49.020;8.644;2022-08-01T04:54:28;3.40;;;2.57;;
40573;SDS011;26283;49.020;8.644;2022-08-01T04:56:58;2.53;;;2.43;;
40573;SDS011;26283;49.020;8.644;2022-08-01T04:59:28;2.50;;;2.30;;
40573;SDS011;26283;49.020;8.644;2022-08-01T05:02:07;2.67;;;2.43;;
40573;SDS011;26283;49.020;8.644;2022-08-01T05:04:33;2.33;;;2.23;;
40573;SDS011;26283;49.020;8.644;2022-08-01T05:06:59;3.00;;;2.57;;
40573;SDS011;26283;49.020;8.644;2022-08-01T05:09:25;2.37;;;2.27;;
40573;SDS011;26283;49.020;8.644;2022-08-01T05:11:50;3.07;;;2.37;;
40573;SDS011;26283;49.020;8.644;2022-08-01T05:14:15;2.53;;;2.30;;
40573;SDS011;26283;49.020;8.644;2022-08-01T05:16:41;2.53;;;2.33;;
40573;SDS011;26283;49.020;8.644;2022-08-01T05:19:06;2.47;;;2.37;;
40573;SDS011;26283;49.020;8.644;2022-08-01T05:21:33;2.60;;;2.40;;
40573;SDS011;26283;49.020;8.644;2022-08-01T05:23:59;3.10;;;2.50;;
40573;SDS011;26283;49.020;8.644;2022-08-01T05:26:24;2.90;;;2.57;;
40573;SDS011;26283;49.020;8.644;2022-08-01T05:28:49;2.97;;;2.27;;
40573;SDS011;26283;49.020;8.644;2022-08-01T05:31:15;3.77;;;2.30;;
40573;SDS011;26283;49.020;8.644;2022-08-01T05:33:40;3.00;;;2.80;;
40573;SDS011;26283;49.020;8.644;2022-08-01T05:36:06;2.63;;;2.30;;
40573;SDS011;26283;49.020;8.644;2022-08-01T05:38:31;3.00;;;2.70;;
40573;SDS011;26283;49.020;8.644;2022-08-01T05:40:56;4.40;;;2.40;;
40573;SDS011;26283;49.020;8.644;2022-08-01T05:43:22;2.40;;;2.20;;
40573;SDS011;26283;49.020;8.644;2022-08-01T05:45:47;2.50;;;2.30;;
40573;SDS011;26283;49.020;8.644;2022-08-01T05:48:13;3.97;;;2.60;;
40573;SDS011;26283;49.020;8.644;2022-08-01T05:50:38;3.80;;;2.50;;
40573;SDS011;26283;49.020;8.644;2022-08-01T05:53:03;2.93;;;2.53;;
40573;SDS011;26283;49.020;8.644;2022-08-01T05:55:29;4.33;;;2.83;;
40573;SDS011;26283;49.020;8.644;2022-08-01T05:57:54;4.53;;;2.57;;
40573;SDS011;26283;49.020;8.644;2022-08-01T06:00:20;4.13;;;2.80;;
40573;SDS011;26283;49.020;8.644;2022-08-01T06:02:46;4.65;;;2.50;;
40573;SDS011;26283;49.020;8.644;2022-08-01T06:05:11;5.13;;;2.30;;
40573;SDS011;26283;49.020;8.644;2022-08-01T06:07:37;2.37;;;2.17;;
40573;SDS011;26283;49.020;8.644;2022-08-01T06:10:03;3.37;;;2.20;;
40573;SDS011;26283;49.020;8.644;2022-08-01T06:12:29;2.40;;;2.30;;
40573;SDS011;26283;49.020;8.644;2022-08-01T06:14:58;3.75;;;2.10;;
40573;SDS011;26283;49.020;8.644;2022-08-01T06:17:23;4.35;;;2.92;;
40573;SDS011;26283;49.020;8.644;2022-08-01T06:19:48;2.83;;;1.95;;
40573;SDS011;26283;49.020;8.644;2022-08-01T06:22:14;2.55;;;2.30;;
40573;SDS011;26283;49.020;8.644;2022-08-01T06:24:39;3.20;;;2.10;;
40573;SDS011;26283;49.020;8.644;2022-08-01T06:27:04;2.30;;;2.00;;
40573;SDS011;26283;49.020;8.644;2022-08-01T06:29:30;2.20;;;2.10;;
40573;SDS011;26283;49.020;8.644;2022-08-01T06:31:57;2.30;;;2.20;;
40573;SDS011;26283;49.020;8.644;2022-08-01T06:34:22;3.03;;;2.53;;
40573;SDS011;26283;49.020;8.644;2022-08-01T06:36:48;2.95;;;2.40;;
40573;SDS011;26283;49.020;8.644;2022-08-01T06:39:13;2.95;;;2.30;;
40573;SDS011;26283;49.020;8.644;2022-08-01T06:41:39;2.30;;;2.10;;
40573;SDS011;26283;49.020;8.644;2022-08-01T06:44:06;2.53;;;2.30;;
40573;SDS011;26283;49.020;8.644;2022-08-01T06:46:32;3.40;;;2.20;;
40573;SDS011;26283;49.020;8.644;2022-08-01T06:49:00;2.30;;;2.20;;
40573;SDS011;26283;49.020;8.644;2022-08-01T06:51:26;3.53;;;2.22;;
40573;SDS011;26283;49.020;8.644;2022-08-01T06:53:51;2.58;;;2.03;;
40573;SDS011;26283;49.020;8.644;2022-08-01T06:56:18;2.25;;;2.10;;
40573;SDS011;26283;49.020;8.644;2022-08-01T06:58:43;2.33;;;2.03;;
40573;SDS011;26283;49.020;8.644;2022-08-01T07:01:09;2.05;;;1.95;;
40573;SDS011;26283;49.020;8.644;2022-08-01T07:03:34;2.28;;;2.08;;
40573;SDS011;26283;49.020;8.644;2022-08-01T07:06:00;3.92;;;2.05;;
40573;SDS011;26283;49.020;8.644;2022-08-01T07:08:26;2.72;;;2.53;;
40573;SDS011;26283;49.020;8.644;2022-08-01T07:10:51;3.35;;;2.50;;
40573;SDS011;26283;49.020;8.644;2022-08-01T07:13:17;2.08;;;1.92;;
40573;SDS011;26283;49.020;8.644;2022-08-01T07:15:46;3.70;;;1.98;;
40573;SDS011;26283;49.020;8.644;2022-08-01T07:18:12;2.78;;;2.42;;
40573;SDS011;26283;49.020;8.644;2022-08-01T07:20:37;2.90;;;2.10;;
40573;SDS011;26283;49.020;8.644;2022-08-01T07:23:03;2.12;;;2.00;;
40573;SDS011;26283;49.020;8.644;2022-08-01T07:25:29;4.62;;;2.40;;
40573;SDS011;26283;49.020;8.644;2022-08-01T07:27:54;1.98;;;1.87;;
40573;SDS011;26283;49.020;8.644;2022-08-01T07:30:20;2.85;;;2.22;;
40573;SDS011;26283;49.020;8.644;2022-08-01T07:32:46;3.05;;;2.03;;
40573;SDS011;26283;49.020;8.644;2022-08-01T07:35:11;2.35;;;2.17;;
40573;SDS011;26283;49.020;8.644;2022-08-01T07:37:37;3.30;;;2.40;;
40573;SDS011;26283;49.020;8.644;2022-08-01T07:40:02;5.12;;;2.15;;
40573;SDS011;26283;49.020;8.644;2022-08-01T07:42:29;2.28;;;1.95;;
40573;SDS011;26283;49.020;8.644;2022-08-01T07:44:55;3.72;;;2.08;;
40573;SDS011;26283;49.020;8.644;2022-08-01T07:47:25;3.20;;;2.90;;
40573;SDS011;26283;49.020;8.644;2022-08-01T07:49:51;2.60;;;2.47;;
40573;SDS011;26283;49.020;8.644;2022-08-01T07:52:18;3.37;;;3.08;;
40573;SDS011;26283;49.020;8.644;2022-08-01T07:54:43;3.80;;;3.15;;
40573;SDS011;26283;49.020;8.644;2022-08-01T07:57:08;3.65;;;3.08;;
40573;SDS011;26283;49.020;8.644;2022-08-01T07:59:34;4.05;;;3.30;;
40573;SDS011;26283;49.020;8.644;2022-08-01T08:02:00;2.87;;;2.67;;
40573;SDS011;26283;49.020;8.644;2022-08-01T08:04:26;3.40;;;3.12;;
40573;SDS011;26283;49.020;8.644;2022-08-01T08:06:51;5.80;;;2.70;;
40573;SDS011;26283;49.020;8.644;2022-08-01T08:09:18;2.83;;;2.58;;
40573;SDS011;26283;49.020;8.644;2022-08-01T08:11:45;3.83;;;2.70;;
40573;SDS011;26283;49.020;8.644;2022-08-01T08:14:11;2.55;;;2.45;;
40573;SDS011;26283;49.020;8.644;2022-08-01T08:16:36;3.55;;;2.40;;
40573;SDS011;26283;49.020;8.644;2022-08-01T08:19:02;3.42;;;2.58;;
40573;SDS011;26283;49.020;8.644;2022-08-01T08:21:28;3.05;;;2.60;;
40573;SDS011;26283;49.020;8.644;2022-08-01T08:23:54;3.00;;;2.45;;
40573;SDS011;26283;49.020;8.644;2022-08-01T08:26:39;2.92;;;2.30;;
40573;SDS011;26283;49.020;8.644;2022-08-01T08:29:04;3.25;;;2.28;;
40573;SDS011;26283;49.020;8.644;2022-08-01T08:31:29;2.45;;;2.35;;
40573;SDS011;26283;49.020;8.644;2022-08-01T08:33:55;3.33;;;2.20;;
40573;SDS011;26283;49.020;8.644;2022-08-01T08:36:20;3.05;;;2.20;;
40573;SDS011;26283;49.020;8.644;2022-08-01T08:38:46;2.55;;;2.35;;
40573;SDS011;26283;49.020;8.644;2022-08-01T08:41:11;2.42;;;2.30;;
40573;SDS011;26283;49.020;8.644;2022-08-01T08:43:37;2.00;;;1.90;;
40573;SDS011;26283;49.020;8.644;2022-08-01T08:46:03;2.40;;;2.20;;
40573;SDS011;26283;49.020;8.644;2022-08-01T08:48:32;2.75;;;2.20;;
40573;SDS011;26283;49.020;8.644;2022-08-01T08:50:59;2.47;;;2.28;;
40573;SDS011;26283;49.020;8.644;2022-08-01T08:53:32;1.98;;;1.70;;
40573;SDS011;26283;49.020;8.644;2022-08-01T08:56:07;1.70;;;1.60;;
40573;SDS011;26283;49.020;8.644;2022-08-01T09:01:59;1.70;;;1.60;;
40573;SDS011;26283;49.020;8.644;2022-08-01T09:04:27;2.95;;;1.92;;
40573;SDS011;26283;49.020;8.644;2022-08-01T09:07:07;1.73;;;1.62;;
40573;SDS011;26283;49.020;8.644;2022-08-01T09:09:35;2.37;;;1.60;;
40573;SDS011;26283;49.020;8.644;2022-08-01T09:12:05;3.70;;;1.70;;
40573;SDS011;26283;49.020;8.644;2022-08-01T09:14:31;2.62;;;1.50;;
40573;SDS011;26283;49.020;8.644;2022-08-01T09:17:07;1.60;;;1.50;;
40573;SDS011;26283;49.020;8.644;2022-08-01T09:19:37;2.45;;;1.73;;
40573;SDS011;26283;49.020;8.644;2022-08-01T09:22:13;1.62;;;1.52;;
40573;SDS011;26283;49.020;8.644;2022-08-01T09:24:56;1.70;;;1.60;;
40573;SDS011;26283;49.020;8.644;2022-08-01T09:27:25;2.10;;;1.75;;
40573;SDS011;26283;49.020;8.644;2022-08-01T09:29:55;3.00;;;1.65;;
40573;SDS011;26283;49.020;8.644;2022-08-01T09:35:27;1.62;;;1.52;;
40573;SDS011;26283;49.020;8.644;2022-08-01T09:40:55;1.90;;;1.60;;
40573;SDS011;26283;49.020;8.644;2022-08-01T09:43:23;3.40;;;1.60;;
40573;SDS011;26283;49.020;8.644;2022-08-01T09:45:56;1.55;;;1.45;;
40573;SDS011;26283;49.020;8.644;2022-08-01T09:48:29;2.37;;;1.60;;
40573;SDS011;26283;49.020;8.644;2022-08-01T09:50:58;2.05;;;1.80;;
40573;SDS011;26283;49.020;8.644;2022-08-01T09:53:27;1.65;;;1.55;;
40573;SDS011;26283;49.020;8.644;2022-08-01T09:56:12;2.45;;;1.62;;
40573;SDS011;26283;49.020;8.644;2022-08-01T10:01:20;1.48;;;1.37;;
40573;SDS011;26283;49.020;8.644;2022-08-01T10:03:46;2.53;;;1.35;;
40573;SDS011;26283;49.020;8.644;2022-08-01T10:06:19;1.87;;;1.77;;
40573;SDS011;26283;49.020;8.644;2022-08-01T10:08:46;1.80;;;1.65;;
40573;SDS011;26283;49.020;8.644;2022-08-01T10:11:12;2.25;;;1.30;;
40573;SDS011;26283;49.020;8.644;2022-08-01T10:13:39;2.83;;;1.50;;
40573;SDS011;26283;49.020;8.644;2022-08-01T10:16:05;1.67;;;1.37;;
40573;SDS011;26283;49.020;8.644;2022-08-01T10:18:32;1.50;;;1.40;;
40573;SDS011;26283;49.020;8.644;2022-08-01T10:20:59;1.50;;;1.40;;
40573;SDS011;26283;49.020;8.644;2022-08-01T10:23:26;2.22;;;1.50;;
40573;SDS011;26283;49.020;8.644;2022-08-01T10:25:53;1.48;;;1.25;;
40573;SDS011;26283;49.020;8.644;2022-08-01T10:28:20;1.40;;;1.30;;
40573;SDS011;26283;49.020;8.644;2022-08-01T10:30:48;2.30;;;1.50;;
40573;SDS011;26283;49.020;8.644;2022-08-01T10:33:17;2.92;;;1.75;;
40573;SDS011;26283;49.020;8.644;2022-08-01T10:35:45;1.62;;;1.52;;
40573;SDS011;26283;49.020;8.644;2022-08-01T10:38:11;2.22;;;1.42;;
40573;SDS011;26283;49.020;8.644;2022-08-01T10:40:37;2.25;;;1.30;;
40573;SDS011;26283;49.020;8.644;2022-08-01T10:43:02;1.55;;;1.45;;
40573;SDS011;26283;49.020;8.644;2022-08-01T10:45:28;3.10;;;1.60;;
40573;SDS011;26283;49.020;8.644;2022-08-01T10:50:51;1.50;;;1.40;;
40573;SDS011;26283;49.020;8.644;2022-08-01T10:53:20;2.08;;;1.55;;
40573;SDS011;26283;49.020;8.644;2022-08-01T10:58:25;2.97;;;1.40;;
40573;SDS011;26283;49.020;8.644;2022-08-01T11:03:37;1.62;;;1.52;;
40573;SDS011;26283;49.020;8.644;2022-08-01T11:06:03;1.50;;;1.40;;
40573;SDS011;26283;49.020;8.644;2022-08-01T11:08:29;2.28;;;1.33;;
40573;SDS011;26283;49.020;8.644;2022-08-01T11:11:02;1.48;;;1.37;;
40573;SDS011;26283;49.020;8.644;2022-08-01T11:16:45;2.55;;;1.50;;
40573;SDS011;26283;49.020;8.644;2022-08-01T11:19:10;1.52;;;1.42;;
40573;SDS011;26283;49.020;8.644;2022-08-01T11:27:21;3.70;;;1.60;;
40573;SDS011;26283;49.020;8.644;2022-08-01T11:32:33;1.60;;;1.50;;
40573;SDS011;26283;49.020;8.644;2022-08-01T11:35:10;1.75;;;1.62;;
40573;SDS011;26283;49.020;8.644;2022-08-01T11:37:35;2.35;;;1.48;;
40573;SDS011;26283;49.020;8.644;2022-08-01T11:42:49;1.65;;;1.48;;
40573;SDS011;26283;49.020;8.644;2022-08-01T11:45:52;2.03;;;1.42;;
40573;SDS011;26283;49.020;8.644;2022-08-01T11:48:20;2.70;;;1.42;;
40573;SDS011;26283;49.020;8.644;2022-08-01T11:50:49;1.73;;;1.50;;
40573;SDS011;26283;49.020;8.644;2022-08-01T11:53:16;1.50;;;1.40;;
40573;SDS011;26283;49.020;8.644;2022-08-01T11:56:01;2.15;;;1.83;;
40573;SDS011;26283;49.020;8.644;2022-08-01T11:58:27;2.33;;;1.65;;
40573;SDS011;26283;49.020;8.644;2022-08-01T12:00:53;1.62;;;1.52;;
40573;SDS011;26283;49.020;8.644;2022-08-01T12:03:29;1.77;;;1.60;;
40573;SDS011;26283;49.020;8.644;2022-08-01T12:05:59;1.70;;;1.60;;
40573;SDS011;26283;49.020;8.644;2022-08-01T12:08:29;1.65;;;1.55;;
40573;SDS011;26283;49.020;8.644;2022-08-01T12:10:58;2.12;;;1.42;;
40573;SDS011;26283;49.020;8.644;2022-08-01T12:13:24;1.95;;;1.40;;
40573;SDS011;26283;49.020;8.644;2022-08-01T12:15:50;1.75;;;1.40;;
40573;SDS011;26283;49.020;8.644;2022-08-01T12:18:15;1.60;;;1.50;;
40573;SDS011;26283;49.020;8.644;2022-08-01T12:20:42;1.65;;;1.55;;
40573;SDS011;26283;49.020;8.644;2022-08-01T12:23:13;1.40;;;1.37;;
40573;SDS011;26283;49.020;8.644;2022-08-01T12:25:41;1.55;;;1.45;;
40573;SDS011;26283;49.020;8.644;2022-08-01T12:28:10;1.87;;;1.77;;
40573;SDS011;26283;49.020;8.644;2022-08-01T12:30:57;1.60;;;1.50;;
40573;SDS011;26283;49.020;8.644;2022-08-01T12:33:24;2.60;;;1.65;;
40573;SDS011;26283;49.020;8.644;2022-08-01T12:35:50;2.12;;;1.48;;
40573;SDS011;26283;49.020;8.644;2022-08-01T12:38:18;1.40;;;1.40;;
40573;SDS011;26283;49.020;8.644;2022-08-01T12:40:47;1.62;;;1.52;;
40573;SDS011;26283;49.020;8.644;2022-08-01T12:43:16;1.67;;;1.40;;
40573;SDS011;26283;49.020;8.644;2022-08-01T12:45:43;1.48;;;1.40;;
40573;SDS011;26283;49.020;8.644;2022-08-01T12:48:11;1.70;;;1.60;;
40573;SDS011;26283;49.020;8.644;2022-08-01T12:50:38;1.75;;;1.65;;
40573;SDS011;26283;49.020;8.644;2022-08-01T12:53:05;1.95;;;1.73;;
40573;SDS011;26283;49.020;8.644;2022-08-01T12:55:33;1.58;;;1.48;;
40573;SDS011;26283;49.020;8.644;2022-08-01T13:00:34;1.52;;;1.40;;
40573;SDS011;26283;49.020;8.644;2022-08-01T13:08:20;2.12;;;1.50;;
40573;SDS011;26283;49.020;8.644;2022-08-01T13:10:50;2.17;;;1.52;;
40573;SDS011;26283;49.020;8.644;2022-08-01T13:13:24;1.65;;;1.40;;
40573;SDS011;26283;49.020;8.644;2022-08-01T13:15:50;1.75;;;1.65;;
40573;SDS011;26283;49.020;8.644;2022-08-01T13:18:29;1.25;;;1.25;;
40573;SDS011;26283;49.020;8.644;2022-08-01T13:26:39;1.52;;;1.42;;
40573;SDS011;26283;49.020;8.644;2022-08-01T13:29:08;1.37;;;1.37;;
40573;SDS011;26283;49.020;8.644;2022-08-01T13:31:35;2.60;;;1.33;;
40573;SDS011;26283;49.020;8.644;2022-08-01T13:34:02;1.90;;;1.25;;
40573;SDS011;26283;49.020;8.644;2022-08-01T13:36:28;1.73;;;1.62;;
40573;SDS011;26283;49.020;8.644;2022-08-01T13:39:03;1.90;;;1.80;;
40573;SDS011;26283;49.020;8.644;2022-08-01T13:41:48;1.25;;;1.25;;
40573;SDS011;26283;49.020;8.644;2022-08-01T13:44:13;1.40;;;1.30;;
40573;SDS011;26283;49.020;8.644;2022-08-01T13:46:40;1.70;;;1.60;;
40573;SDS011;26283;49.020;8.644;2022-08-01T13:49:07;1.40;;;1.30;;
40573;SDS011;26283;49.020;8.644;2022-08-01T13:51:34;1.60;;;1.50;;
40573;SDS011;26283;49.020;8.644;2022-08-01T13:54:00;1.30;;;1.20;;
40573;SDS011;26283;49.020;8.644;2022-08-01T13:56:26;1.42;;;1.30;;
40573;SDS011;26283;49.020;8.644;2022-08-01T13:58:55;2.55;;;1.20;;
40573;SDS011;26283;49.020;8.644;2022-08-01T14:01:21;1.73;;;1.15;;
40573;SDS011;26283;49.020;8.644;2022-08-01T14:03:47;1.40;;;1.30;;
40573;SDS011;26283;49.020;8.644;2022-08-01T14:06:13;2.22;;;1.30;;
40573;SDS011;26283;49.020;8.644;2022-08-01T14:08:40;1.20;;;1.20;;
40573;SDS011;26283;49.020;8.644;2022-08-01T14:11:06;1.25;;;1.20;;
40573;SDS011;26283;49.020;8.644;2022-08-01T14:13:31;1.23;;;1.12;;
40573;SDS011;26283;49.020;8.644;2022-08-01T14:15:58;1.20;;;1.10;;
40573;SDS011;26283;49.020;8.644;2022-08-01T14:18:23;1.00;;;1.00;;
40573;SDS011;26283;49.020;8.644;2022-08-01T14:20:49;1.30;;;1.20;;
40573;SDS011;26283;49.020;8.644;2022-08-01T14:23:14;1.12;;;1.12;;
40573;SDS011;26283;49.020;8.644;2022-08-01T14:25:40;1.35;;;1.25;;
40573;SDS011;26283;49.020;8.644;2022-08-01T14:28:06;1.05;;;0.98;;
40573;SDS011;26283;49.020;8.644;2022-08-01T14:30:32;1.00;;;1.00;;
40573;SDS011;26283;49.020;8.644;2022-08-01T14:32:58;1.10;;;1.10;;
40573;SDS011;26283;49.020;8.644;2022-08-01T14:35:23;1.55;;;0.90;;
40573;SDS011;26283;49.020;8.644;2022-08-01T14:37:49;1.02;;;1.02;;
40573;SDS011;26283;49.020;8.644;2022-08-01T14:40:15;1.83;;;1.10;;
40573;SDS011;26283;49.020;8.644;2022-08-01T14:42:40;2.67;;;1.20;;
40573;SDS011;26283;49.020;8.644;2022-08-01T14:45:08;1.50;;;1.00;;
40573;SDS011;26283;49.020;8.644;2022-08-01T14:47:34;1.12;;;1.02;;
40573;SDS011;26283;49.020;8.644;2022-08-01T14:50:01;2.03;;;1.50;;
40573;SDS011;26283;49.020;8.644;2022-08-01T14:52:28;1.48;;;1.25;;
40573;SDS011;26283;49.020;8.644;2022-08-01T14:54:53;1.90;;;1.40;;
40573;SDS011;26283;49.020;8.644;2022-08-01T14:57:19;2.65;;;1.23;;
40573;SDS011;26283;49.020;8.644;2022-08-01T14:59:44;1.17;;;1.00;;
40573;SDS011;26283;49.020;8.644;2022-08-01T15:02:10;1.10;;;1.10;;
40573;SDS011;26283;49.020;8.644;2022-08-01T15:04:36;2.08;;;1.20;;
40573;SDS011;26283;49.020;8.644;2022-08-01T15:07:01;1.00;;;1.00;;
40573;SDS011;26283;49.020;8.644;2022-08-01T15:09:27;1.50;;;0.80;;
40573;SDS011;26283;49.020;8.644;2022-08-01T15:11:52;1.00;;;1.00;;
40573;SDS011;26283;49.020;8.644;2022-08-01T15:14:17;1.30;;;1.00;;
40573;SDS011;26283;49.020;8.644;2022-08-01T15:17:01;1.10;;;1.05;;
40573;SDS011;26283;49.020;8.644;2022-08-01T15:19:27;1.23;;;0.93;;
40573;SDS011;26283;49.020;8.644;2022-08-01T15:21:52;1.00;;;1.00;;
40573;SDS011;26283;49.020;8.644;2022-08-01T15:24:18;1.00;;;0.90;;
40573;SDS011;26283;49.020;8.644;2022-08-01T15:26:43;1.23;;;1.02;;
40573;SDS011;26283;49.020;8.644;2022-08-01T15:29:08;1.75;;;1.00;;
40573;SDS011;26283;49.020;8.644;2022-08-01T15:31:34;3.22;;;1.02;;
40573;SDS011;26283;49.020;8.644;2022-08-01T15:33:59;0.77;;;0.77;;
40573;SDS011;26283;49.020;8.644;2022-08-01T15:36:25;0.85;;;0.85;;
40573;SDS011;26283;49.020;8.644;2022-08-01T15:38:50;1.80;;;1.00;;
40573;SDS011;26283;49.020;8.644;2022-08-01T15:41:15;1.20;;;1.10;;
40573;SDS011;26283;49.020;8.644;2022-08-01T15:43:41;0.82;;;0.82;;
40573;SDS011;26283;49.020;8.644;2022-08-01T15:46:06;1.55;;;1.05;;
40573;SDS011;26283;49.020;8.644;2022-08-01T15:48:32;1.25;;;0.98;;
40573;SDS011;26283;49.020;8.644;2022-08-01T15:50:57;1.30;;;1.20;;